»·PEaware :: N50TC KVNY-CYVR

N50TC :: KVNY-CYVR

FLIGHT INFORMATION

Flight Status: Arrived
Operator: Privately registered:
United States
More flights under this callsign
Pilot: Steven R. (3445)
Aircraft: BOEING 737-700
(B737)
More flights by this aircraft type
Origin: KVNY Van Nuys
United States
Destination: CYVR Vancouver Intl
Canada
More flights between these airports :: More routes between these airports
Route: CANOG1 GMN FRA LKV PAE GRIZZ4
File this flight plan on PilotEdge
Remarks: ADCUS CANPASS
Altitude:
(Current/Filed)
38,000ft
Speed:
(Current/Filed)
444kts
Departed: 11-Apr-14 07:22 AM
Arrived: 11-Apr-14 09:43 AM
Distance/Time
Traveled:
922nm/2:20
Distance/Time
To Go:
Arrived

Flight Plot

Page will automatically refresh every two minutes.


Map Options




Map Legend


Flown Route
Filed Route
Departure Airport
Arrival Airport
Navaid (VOR, NDB)
Fix

Horizontal Profiles

Position Reports

Time Latitude Longitude Heading Altitude Ground
Speed
11-Apr-14 06:43 34.199800 -118.488100 0 809ft 0kts
11-Apr-14 06:44 34.199849 -118.488054 90 809ft 0kts
11-Apr-14 06:45 34.199849 -118.488054 90 809ft 0kts
11-Apr-14 06:46 34.199849 -118.488054 90 809ft 0kts
11-Apr-14 06:47 34.199849 -118.488054 90 809ft 0kts
11-Apr-14 06:48 34.199849 -118.488054 90 809ft 0kts
11-Apr-14 06:49 34.199849 -118.488054 90 809ft 0kts
11-Apr-14 06:50 34.199849 -118.488054 90 810ft 0kts
11-Apr-14 06:51 34.199849 -118.488054 90 810ft 0kts
11-Apr-14 06:52 34.199849 -118.488054 90 810ft 0kts
11-Apr-14 06:53 34.199849 -118.488054 90 810ft 0kts
11-Apr-14 06:54 34.199849 -118.488054 90 810ft 0kts
11-Apr-14 06:55 34.199849 -118.488054 90 810ft 0kts
11-Apr-14 06:56 34.199849 -118.488054 90 810ft 0kts
11-Apr-14 06:57 34.199849 -118.488054 90 810ft 0kts
11-Apr-14 06:58 34.199849 -118.488054 90 810ft 0kts
11-Apr-14 06:59 34.199849 -118.488054 90 810ft 0kts
11-Apr-14 07:00 34.199849 -118.488054 90 810ft 0kts
11-Apr-14 07:01 34.199849 -118.488054 90 810ft 0kts
11-Apr-14 07:02 34.199849 -118.488054 90 810ft 0kts
11-Apr-14 07:03 34.199849 -118.488054 90 810ft 0kts
11-Apr-14 07:04 34.199849 -118.488054 90 810ft 0kts
11-Apr-14 07:05 34.199849 -118.488054 90 810ft 0kts
11-Apr-14 07:06 34.199849 -118.488054 90 810ft 0kts
11-Apr-14 07:07 34.199849 -118.488054 90 810ft 0kts
11-Apr-14 07:08 34.199849 -118.488054 90 810ft 0kts
11-Apr-14 07:09 34.199849 -118.488054 90 810ft 0kts
11-Apr-14 07:10 34.199849 -118.488054 90 810ft 0kts
11-Apr-14 07:11 34.199849 -118.488054 90 810ft 0kts
11-Apr-14 07:12 34.199849 -118.488054 90 810ft 0kts
11-Apr-14 07:13 34.199849 -118.488054 90 810ft 0kts
11-Apr-14 07:14 34.200209 -118.488235 301 810ft 6kts
11-Apr-14 07:15 34.203374 -118.488564 3 810ft 9kts
11-Apr-14 07:16 34.206331 -118.488335 3 810ft 10kts
11-Apr-14 07:17 34.210153 -118.488380 355 810ft 16kts
11-Apr-14 07:18 34.213630 -118.488748 356 810ft 12kts
11-Apr-14 07:19 34.217652 -118.489413 356 810ft 10kts
11-Apr-14 07:20 34.218514 -118.491215 178 810ft 8kts
11-Apr-14 07:21 34.215296 -118.490922 175 810ft 87kts
11-Apr-14 07:22 34.173203 -118.500568 221 3339ft 186kts
11-Apr-14 07:23 34.166605 -118.546546 323 3838ft 165kts
11-Apr-14 07:24 34.217186 -118.571129 338 6828ft 224kts
11-Apr-14 07:25 34.283576 -118.603465 336 10070ft 279kts
11-Apr-14 07:26 34.363266 -118.642700 335 12651ft 345kts
11-Apr-14 07:27 34.456713 -118.688895 334 15774ft 375kts
11-Apr-14 07:28 34.556437 -118.738220 335 18847ft 398kts
11-Apr-14 07:29 34.662041 -118.790573 334 21495ft 420kts
11-Apr-14 07:30 34.773487 -118.846103 335 23892ft 440kts
11-Apr-14 07:31 34.893760 -118.890145 343 25975ft 460kts
11-Apr-14 07:32 35.018771 -118.928425 345 28225ft 464kts
11-Apr-14 07:33 35.146145 -118.967997 345 29817ft 479kts
11-Apr-14 07:34 35.277128 -119.008806 344 31355ft 487kts
11-Apr-14 07:35 35.408962 -119.050108 343 32882ft 492kts
11-Apr-14 07:36 35.540054 -119.091406 342 35104ft 475kts
11-Apr-14 07:37 35.668084 -119.131853 341 36741ft 471kts
11-Apr-14 07:38 35.793713 -119.171725 341 37964ft 464kts
11-Apr-14 07:39 35.918079 -119.211311 341 37969ft 458kts
11-Apr-14 07:40 36.041905 -119.250846 341 37969ft 459kts
11-Apr-14 07:41 36.166416 -119.290720 341 37971ft 460kts
11-Apr-14 07:42 36.290435 -119.330566 341 37976ft 459kts
11-Apr-14 07:43 36.414280 -119.370492 341 37951ft 459kts
11-Apr-14 07:44 36.538095 -119.410540 341 37949ft 459kts
11-Apr-14 07:45 36.661828 -119.450701 342 37949ft 458kts
11-Apr-14 07:46 36.785905 -119.491096 343 37949ft 460kts
11-Apr-14 07:47 36.910379 -119.531680 343 37949ft 460kts
11-Apr-14 07:48 37.034429 -119.572409 343 37949ft 460kts
11-Apr-14 07:49 37.159972 -119.605257 351 37949ft 462kts
11-Apr-14 07:50 37.288290 -119.624705 350 37949ft 462kts
11-Apr-14 07:51 37.416108 -119.644644 350 37959ft 462kts
11-Apr-14 07:52 37.544323 -119.664785 350 37959ft 462kts
11-Apr-14 07:53 37.671556 -119.684918 351 38008ft 456kts
11-Apr-14 07:54 37.797783 -119.704997 351 38151ft 457kts
11-Apr-14 07:55 37.924108 -119.725174 351 38203ft 456kts
11-Apr-14 07:56 38.050850 -119.745492 351 38209ft 456kts
11-Apr-14 07:57 38.176714 -119.765745 351 38200ft 452kts
11-Apr-14 07:58 38.302047 -119.785978 351 38199ft 453kts
11-Apr-14 07:59 38.427456 -119.806296 351 38200ft 453kts
11-Apr-14 08:00 38.553244 -119.826748 351 38199ft 453kts
11-Apr-14 08:01 38.657803 -119.843803 351 38199ft 453kts
11-Apr-14 08:02 38.783175 -119.864320 351 38199ft 453kts
11-Apr-14 08:03 38.908573 -119.884912 351 38199ft 453kts
11-Apr-14 08:04 39.034343 -119.905640 351 38193ft 454kts
11-Apr-14 08:05 39.159970 -119.926419 351 38171ft 453kts
11-Apr-14 08:06 39.285395 -119.947240 351 38169ft 453kts
11-Apr-14 08:07 39.411148 -119.968190 351 38189ft 453kts
11-Apr-14 08:08 39.536669 -119.989173 351 38158ft 454kts
11-Apr-14 08:09 39.662120 -120.010227 351 38130ft 454kts
11-Apr-14 08:10 39.788119 -120.031471 351 38130ft 454kts
11-Apr-14 08:11 39.913556 -120.052657 351 38144ft 454kts
11-Apr-14 08:12 40.039038 -120.073952 351 38149ft 453kts
11-Apr-14 08:15 40.415045 -120.138228 350 38130ft 453kts
11-Apr-14 08:16 40.540516 -120.159842 350 38129ft 452kts
11-Apr-14 08:17 40.665554 -120.181460 350 38130ft 452kts
11-Apr-14 08:18 40.790299 -120.203109 350 38129ft 452kts
11-Apr-14 08:19 40.915265 -120.224879 350 38119ft 451kts
11-Apr-14 08:20 41.040044 -120.246698 350 38128ft 448kts
11-Apr-14 08:21 41.164137 -120.268482 350 38129ft 449kts
11-Apr-14 08:22 41.288382 -120.290375 350 38111ft 450kts
11-Apr-14 08:22 41.288382 -120.290375 350 38111ft 450kts
11-Apr-14 08:23 41.412716 -120.312367 350 38119ft 450kts
11-Apr-14 08:24 41.536921 -120.334422 350 38126ft 447kts
11-Apr-14 08:25 41.660461 -120.356443 350 38137ft 447kts
11-Apr-14 08:26 41.784371 -120.378612 350 38139ft 447kts
11-Apr-14 08:27 41.907891 -120.400836 350 38148ft 447kts
11-Apr-14 08:28 42.031294 -120.423071 351 38149ft 446kts
11-Apr-14 08:29 42.154732 -120.445420 350 38149ft 446kts
11-Apr-14 08:30 42.278585 -120.467865 350 38146ft 446kts
11-Apr-14 08:31 42.401745 -120.490391 350 38139ft 446kts
11-Apr-14 08:32 42.524403 -120.514818 346 38139ft 443kts
11-Apr-14 08:32 42.524403 -120.514818 346 38139ft 443kts
11-Apr-14 08:33 42.645050 -120.551542 345 38139ft 443kts
11-Apr-14 08:34 42.765674 -120.588144 345 38139ft 443kts
11-Apr-14 08:34 42.765674 -120.588144 345 38139ft 443kts
11-Apr-14 08:35 42.886432 -120.624465 345 38139ft 443kts
11-Apr-14 08:36 43.006717 -120.660615 345 38139ft 441kts
11-Apr-14 08:37 43.126892 -120.696894 345 38139ft 441kts
11-Apr-14 08:37 43.126892 -120.696894 345 38139ft 441kts
11-Apr-14 08:38 43.246742 -120.733216 345 38140ft 439kts
11-Apr-14 08:38 43.246742 -120.733216 345 38140ft 439kts
11-Apr-14 08:39 43.366327 -120.769605 345 38138ft 439kts
11-Apr-14 08:39 43.366327 -120.769605 345 38138ft 439kts
11-Apr-14 08:40 43.485559 -120.806070 344 38139ft 438kts
11-Apr-14 08:40 43.485559 -120.806070 344 38139ft 438kts
11-Apr-14 08:41 43.604786 -120.842637 344 38132ft 436kts
11-Apr-14 08:42 43.723187 -120.879103 344 38129ft 433kts
11-Apr-14 08:43 43.821194 -120.909433 344 38130ft 434kts
11-Apr-14 08:44 43.939192 -120.946031 344 38128ft 433kts
11-Apr-14 08:45 44.057275 -120.982843 344 38130ft 434kts
11-Apr-14 08:46 44.175283 -121.019781 344 38129ft 434kts
11-Apr-14 08:47 44.293773 -121.057035 344 38130ft 434kts
11-Apr-14 08:48 44.411806 -121.094272 344 38129ft 434kts
11-Apr-14 08:49 44.529830 -121.131661 344 38129ft 434kts
11-Apr-14 08:50 44.647925 -121.169251 344 38130ft 434kts
11-Apr-14 08:51 44.765879 -121.206916 344 38129ft 433kts
11-Apr-14 08:52 44.883903 -121.244762 344 38130ft 434kts
11-Apr-14 08:53 45.001796 -121.282696 343 38123ft 432kts
11-Apr-14 08:54 45.118285 -121.320303 341 38119ft 425kts
11-Apr-14 08:55 45.234024 -121.357991 341 38119ft 425kts
11-Apr-14 08:56 45.350046 -121.395879 341 38119ft 425kts
11-Apr-14 08:57 45.465744 -121.433788 341 38119ft 425kts
11-Apr-14 08:58 45.581400 -121.471849 341 38119ft 425kts
11-Apr-14 08:59 45.696986 -121.510042 341 38120ft 425kts
11-Apr-14 09:00 45.813211 -121.548606 341 38156ft 426kts
11-Apr-14 09:01 45.929076 -121.587217 341 38169ft 426kts
11-Apr-14 09:02 46.045112 -121.626051 341 38178ft 427kts
11-Apr-14 09:03 46.161080 -121.665030 341 38165ft 427kts
11-Apr-14 09:04 46.277452 -121.704314 341 38168ft 427kts
11-Apr-14 09:05 46.393440 -121.743639 341 38179ft 427kts
11-Apr-14 09:06 46.509418 -121.783122 340 38188ft 426kts
11-Apr-14 09:07 46.624770 -121.822571 339 38190ft 426kts
11-Apr-14 09:08 46.741290 -121.862593 339 38248ft 430kts
11-Apr-14 09:09 46.858286 -121.902981 339 38259ft 429kts
11-Apr-14 09:10 46.974383 -121.943239 339 38214ft 425kts
11-Apr-14 09:11 47.089920 -121.983456 339 38200ft 427kts
11-Apr-14 09:12 47.205581 -122.023903 339 38200ft 426kts
11-Apr-14 09:13 47.320985 -122.064429 339 38200ft 424kts
11-Apr-14 09:14 47.435884 -122.104984 338 38202ft 424kts
11-Apr-14 09:15 47.550890 -122.145754 338 35679ft 423kts
11-Apr-14 09:16 47.664117 -122.185933 337 32588ft 413kts
11-Apr-14 09:17 47.775856 -122.225926 337 29577ft 409kts
11-Apr-14 09:18 47.886739 -122.265846 336 27093ft 400kts
11-Apr-14 09:19 47.993504 -122.299897 340 24744ft 381kts
11-Apr-14 09:20 48.095048 -122.328733 340 22474ft 360kts
11-Apr-14 09:21 48.191063 -122.356556 341 20269ft 343kts
11-Apr-14 09:22 48.284620 -122.383559 341 18112ft 344kts
11-Apr-14 09:23 48.378410 -122.410973 341 15733ft 337kts
11-Apr-14 09:24 48.468165 -122.437485 342 13670ft 319kts
11-Apr-14 09:25 48.540182 -122.458656 344 11956ft 314kts
11-Apr-14 09:26 48.631714 -122.485688 343 11022ft 249kts
11-Apr-14 09:27 48.690859 -122.503225 340 10617ft 263kts
11-Apr-14 09:28 48.755519 -122.538516 330 9367ft 240kts
11-Apr-14 09:29 48.817072 -122.580975 332 7895ft 245kts
11-Apr-14 09:30 48.879237 -122.623411 332 6737ft 244kts
11-Apr-14 09:31 48.940932 -122.665597 332 5534ft 241kts
11-Apr-14 09:32 49.000876 -122.706806 332 4512ft 228kts
11-Apr-14 09:33 49.056273 -122.745091 334 3688ft 209kts
11-Apr-14 09:34 49.107404 -122.780445 334 2999ft 196kts
11-Apr-14 09:35 49.146630 -122.827586 285 2978ft 167kts
11-Apr-14 09:36 49.154397 -122.895997 278 2993ft 164kts
11-Apr-14 09:37 49.161883 -122.961992 278 2584ft 140kts
11-Apr-14 09:38 49.168348 -123.018340 279 1854ft 131kts
11-Apr-14 09:39 49.174676 -123.073453 278 1153ft 129kts
11-Apr-14 09:40 49.180853 -123.127263 279 472ft 126kts
11-Apr-14 09:41 49.186461 -123.176216 279 22ft 52kts
11-Apr-14 09:42 49.185042 -123.181000 101 22ft 14kts
11-Apr-14 09:43 49.184092 -123.175652 219 22ft 5kts
11-Apr-14 09:44 49.184043 -123.177131 280 22ft 0kts
11-Apr-14 09:45 49.184043 -123.177131 280 22ft 0kts
11-Apr-14 09:46 49.184043 -123.177131 280 22ft 0kts
11-Apr-14 09:47 49.184043 -123.177131 280 22ft 0kts
11-Apr-14 09:48 49.184043 -123.177131 280 22ft 0kts

Navigation Log

Ident Type
Flight plan parsing failed, navigation log unavailable